Time;durP1;ratioP1;P1;durP2;ratioP2;P2;SDS_P1;SDS_P2;PMS_P1;PMS_P2;Temp;Humidity;BMP_temperature;BMP_pressure;BME280_temperature;BME280_humidity;BME280_pressure;Samples;Min_cycle;Max_cycle;Signal;HPM_P1;HPM_P2
2023/10/11 00:02:16;;;;;;;;;13.00;12.67;;;;;;;;5082030;27;45346;-45
2023/10/11 00:04:42;;;;;;;;;14.67;13.00;;;;;;;;5078836;27;45583;-44
2023/10/11 00:07:07;;;;;;;;;14.00;12.00;;;;;;;;5073844;28;45536;-44
2023/10/11 00:09:35;;;;;;;;;18.00;12.67;;;;;;;;5079590;28;46172;-45
2023/10/11 00:12:01;;;;;;;;;14.33;13.33;;;;;;;;5077527;28;45310;-44
2023/10/11 00:14:28;;;;;;;;;17.00;15.33;;;;;;;;5076876;28;45240;-44
2023/10/11 00:16:54;;;;;;;;;14.33;13.67;;;;;;;;5077410;28;45714;-47
2023/10/11 00:19:19;;;;;;;;;16.00;13.00;;;;;;;;5076698;27;45468;-44
2023/10/11 00:21:45;;;;;;;;;15.00;12.00;;;;;;;;5071314;28;45283;-45
2023/10/11 00:24:11;;;;;;;;;14.00;14.00;;;;;;;;5073153;28;45452;-44
2023/10/11 00:26:40;;;;;;;;;19.00;16.33;;;;;;;;5077684;28;45373;-44
2023/10/11 00:29:05;;;;;;;;;13.33;12.33;;;;;;;;5075962;28;46296;-46
2023/10/11 00:31:31;;;;;;;;;14.00;13.33;;;;;;;;5074471;28;45443;-47
2023/10/11 00:33:56;;;;;;;;;12.67;11.67;;;;;;;;5079870;27;45502;-44
2023/10/11 00:36:29;;;;;;;;;13.00;12.67;;;;;;;;5074991;27;45666;-45
2023/10/11 00:38:54;;;;;;;;;16.50;13.00;;;;;;;;5079903;28;46318;-44
2023/10/11 00:41:19;;;;;;;;;17.33;13.00;;;;;;;;5079662;27;45619;-43
2023/10/11 00:43:50;;;;;;;;;16.00;14.00;;;;;;;;5076063;28;45552;-44
2023/10/11 00:46:18;;;;;;;;;25.67;18.33;;;;;;;;5079138;28;45356;-44
2023/10/11 00:49:04;;;;;;;;;19.00;12.67;;;;;;;;5079375;28;46262;-45
2023/10/11 00:51:30;;;;;;;;;18.00;15.00;;;;;;;;5077832;27;45491;-46
2023/10/11 00:53:56;;;;;;;;;22.00;17.67;;;;;;;;5067832;28;45339;-44
2023/10/11 00:56:22;;;;;;;;;22.00;18.00;;;;;;;;5079300;28;45215;-46
2023/10/11 00:58:48;;;;;;;;;15.00;13.67;;;;;;;;5067269;28;46273;-47
2023/10/11 01:01:14;;;;;;;;;17.67;15.33;;;;;;;;5076573;27;45903;-45
2023/10/11 01:03:41;;;;;;;;;15.00;13.33;;;;;;;;5079926;28;45475;-46
2023/10/11 01:06:06;;;;;;;;;19.00;14.33;;;;;;;;5078075;27;45455;-46
2023/10/11 01:08:38;;;;;;;;;18.33;17.00;;;;;;;;5079596;27;46450;-45
2023/10/11 01:11:04;;;;;;;;;18.33;13.33;;;;;;;;5077422;28;45426;-44
2023/10/11 01:13:29;;;;;;;;;13.67;11.67;;;;;;;;5092149;27;45697;-45
2023/10/11 01:15:54;;;;;;;;;17.00;17.00;;;;;;;;5079388;27;45690;-43
2023/10/11 01:18:20;;;;;;;;;12.67;12.67;;;;;;;;5079333;27;45760;-43
2023/10/11 01:20:45;;;;;;;;;15.00;15.00;;;;;;;;5089725;27;45650;-44
2023/10/11 01:23:11;;;;;;;;;15.00;12.33;;;;;;;;5082025;27;45267;-45
2023/10/11 01:25:36;;;;;;;;;19.33;16.00;;;;;;;;5077615;28;46197;-43
2023/10/11 01:28:01;;;;;;;;;20.00;19.00;;;;;;;;5084879;27;46291;-46
2023/10/11 01:30:27;;;;;;;;;16.00;15.00;;;;;;;;5084447;27;45416;-47
2023/10/11 01:32:54;;;;;;;;;14.33;12.67;;;;;;;;5083757;27;45397;-43
2023/10/11 01:35:20;;;;;;;;;18.67;17.67;;;;;;;;5093605;27;45402;-44
2023/10/11 01:37:46;;;;;;;;;15.67;15.33;;;;;;;;5090901;27;46901;-44
2023/10/11 01:40:20;;;;;;;;;13.33;12.33;;;;;;;;5082760;27;45378;-43
2023/10/11 01:42:49;;;;;;;;;18.00;15.33;;;;;;;;5078787;27;45426;-46
2023/10/11 01:45:15;;;;;;;;;14.00;11.00;;;;;;;;5078408;27;45453;-46
2023/10/11 01:47:40;;;;;;;;;12.67;12.33;;;;;;;;5077504;27;46350;-45
2023/10/11 01:50:07;;;;;;;;;17.33;13.33;;;;;;;;5077683;27;45410;-45
2023/10/11 01:52:34;;;;;;;;;16.67;15.00;;;;;;;;5078749;27;45491;-45
2023/10/11 01:55:00;;;;;;;;;12.00;10.00;;;;;;;;5079293;27;45407;-43
2023/10/11 01:57:25;;;;;;;;;14.00;11.00;;;;;;;;5079017;27;45247;-44
2023/10/11 01:59:50;;;;;;;;;14.67;13.00;;;;;;;;5079305;27;46591;-44
2023/10/11 02:02:16;;;;;;;;;14.00;12.67;;;;;;;;5079222;27;45570;-46
2023/10/11 02:04:41;;;;;;;;;16.00;13.67;;;;;;;;5078354;27;45405;-45
2023/10/11 02:07:07;;;;;;;;;17.00;14.00;;;;;;;;5078063;27;45429;-49
2023/10/11 02:09:33;;;;;;;;;18.00;12.00;;;;;;;;5080004;27;45474;-44
2023/10/11 02:11:58;;;;;;;;;13.67;11.00;;;;;;;;5091034;27;46365;-45
2023/10/11 02:14:24;;;;;;;;;16.00;14.33;;;;;;;;5087393;27;45432;-45
2023/10/11 02:16:49;;;;;;;;;15.00;14.00;;;;;;;;5091330;27;45410;-44
2023/10/11 02:19:15;;;;;;;;;15.67;14.00;;;;;;;;5091252;27;45336;-44
2023/10/11 02:21:43;;;;;;;;;13.67;13.33;;;;;;;;5089282;27;45571;-44
2023/10/11 02:24:09;;;;;;;;;16.00;12.00;;;;;;;;5078155;28;45357;-46
2023/10/11 02:26:34;;;;;;;;;12.33;10.33;;;;;;;;5087703;27;46893;-44
2023/10/11 02:29:06;;;;;;;;;15.67;12.67;;;;;;;;5077421;27;45409;-44
2023/10/11 02:31:33;;;;;;;;;15.33;13.33;;;;;;;;5078147;27;45530;-44
2023/10/11 02:34:12;;;;;;;;;13.67;13.33;;;;;;;;5079300;27;45510;-45
2023/10/11 02:36:38;;;;;;;;;13.00;12.33;;;;;;;;5079223;27;45363;-45
2023/10/11 02:39:05;;;;;;;;;13.00;12.00;;;;;;;;5081106;27;45440;-48
2023/10/11 02:41:31;;;;;;;;;12.00;12.00;;;;;;;;5093465;27;45290;-45
2023/10/11 02:43:57;;;;;;;;;14.67;12.00;;;;;;;;5088375;27;45277;-45
2023/10/11 02:46:23;;;;;;;;;14.00;13.00;;;;;;;;5088680;27;46261;-45
2023/10/11 02:48:49;;;;;;;;;14.67;14.00;;;;;;;;5089950;27;45476;-45
2023/10/11 02:51:17;;;;;;;;;16.67;13.00;;;;;;;;5087017;27;45536;-45
2023/10/11 02:53:45;;;;;;;;;16.67;12.00;;;;;;;;5079225;27;45412;-43
2023/10/11 02:56:11;;;;;;;;;15.33;13.00;;;;;;;;5068895;28;46323;-44
2023/10/11 02:58:39;;;;;;;;;18.67;16.00;;;;;;;;5087117;27;45329;-45
2023/10/11 03:01:10;;;;;;;;;16.00;13.33;;;;;;;;5079486;27;45286;-44
2023/10/11 03:03:38;;;;;;;;;15.33;12.00;;;;;;;;5089610;27;45421;-44
2023/10/11 03:06:07;;;;;;;;;13.67;12.00;;;;;;;;5074810;27;46261;-45
2023/10/11 03:08:32;;;;;;;;;12.67;12.33;;;;;;;;5079003;27;46979;-43
2023/10/11 03:10:57;;;;;;;;;13.00;13.00;;;;;;;;5093117;27;46572;-44
2023/10/11 03:13:29;;;;;;;;;13.67;13.00;;;;;;;;5087001;27;45562;-43
2023/10/11 03:15:55;;;;;;;;;14.67;13.33;;;;;;;;5079024;27;46913;-44
2023/10/11 03:18:22;;;;;;;;;15.00;11.33;;;;;;;;5073452;27;45612;-44
2023/10/11 03:20:50;;;;;;;;;13.33;11.00;;;;;;;;5077537;28;45504;-44
2023/10/11 03:23:20;;;;;;;;;14.67;13.00;;;;;;;;5078318;27;45401;-44
2023/10/11 03:25:49;;;;;;;;;14.00;14.00;;;;;;;;5092518;27;46303;-43
2023/10/11 03:28:15;;;;;;;;;13.33;11.67;;;;;;;;5075181;28;45324;-44
2023/10/11 03:30:40;;;;;;;;;11.00;11.00;;;;;;;;5083439;27;45394;-44
2023/10/11 03:33:07;;;;;;;;;11.33;11.00;;;;;;;;5084807;27;45603;-43
2023/10/11 03:35:34;;;;;;;;;14.33;13.00;;;;;;;;5081211;27;46369;-46
2023/10/11 03:38:00;;;;;;;;;16.67;14.00;;;;;;;;5084136;27;45358;-45
2023/10/11 03:40:34;;;;;;;;;14.00;13.00;;;;;;;;5083379;27;45260;-45
2023/10/11 03:43:03;;;;;;;;;17.00;12.67;;;;;;;;5080157;28;45539;-43
2023/10/11 03:45:29;;;;;;;;;12.33;11.33;;;;;;;;5083029;27;46250;-45
2023/10/11 03:47:56;;;;;;;;;13.00;11.00;;;;;;;;5085414;27;45451;-45
2023/10/11 03:50:31;;;;;;;;;12.33;12.00;;;;;;;;5083383;27;45479;-44
2023/10/11 03:53:06;;;;;;;;;11.00;11.00;;;;;;;;5082614;27;45513;-43
2023/10/11 03:55:31;;;;;;;;;16.00;15.67;;;;;;;;5084006;27;47354;-43
2023/10/11 03:57:57;;;;;;;;;13.00;10.33;;;;;;;;5083864;27;45456;-44
2023/10/11 04:00:25;;;;;;;;;14.67;13.00;;;;;;;;5081398;28;45681;-44
2023/10/11 04:02:57;;;;;;;;;11.67;11.67;;;;;;;;5079781;28;45316;-44
2023/10/11 04:05:23;;;;;;;;;19.33;13.00;;;;;;;;5076354;28;46380;-44
2023/10/11 04:07:48;;;;;;;;;17.33;12.33;;;;;;;;5080778;28;45152;-45
2023/10/11 04:10:32;;;;;;;;;12.00;12.00;;;;;;;;5079393;28;45495;-45
2023/10/11 04:12:57;;;;;;;;;12.00;12.00;;;;;;;;5080550;28;45342;-43
2023/10/11 04:15:30;;;;;;;;;17.33;12.33;;;;;;;;5079592;27;46223;-43
2023/10/11 04:17:55;;;;;;;;;13.33;12.00;;;;;;;;5075724;27;45433;-43
2023/10/11 04:20:29;;;;;;;;;17.67;13.00;;;;;;;;5079880;28;45321;-44
2023/10/11 04:23:09;;;;;;;;;13.67;13.67;;;;;;;;5079885;27;45526;-46
2023/10/11 04:25:37;;;;;;;;;14.00;13.00;;;;;;;;5078465;28;46101;-45
2023/10/11 04:28:02;;;;;;;;;13.00;12.00;;;;;;;;5079552;27;45614;-44
2023/10/11 04:30:41;;;;;;;;;14.33;11.67;;;;;;;;5076770;28;45403;-43
2023/10/11 04:33:10;;;;;;;;;15.67;13.33;;;;;;;;5078462;28;45919;-44
2023/10/11 04:35:42;;;;;;;;;15.33;15.33;;;;;;;;5079705;28;47124;-44
2023/10/11 04:38:10;;;;;;;;;14.33;12.00;;;;;;;;5079892;28;45293;-44
2023/10/11 04:40:41;;;;;;;;;17.00;16.00;;;;;;;;5080050;28;45499;-46
2023/10/11 04:43:08;;;;;;;;;12.33;12.33;;;;;;;;5076108;28;45473;-44
2023/10/11 04:45:46;;;;;;;;;13.00;12.00;;;;;;;;5075843;27;45365;-43
2023/10/11 04:48:15;;;;;;;;;16.67;12.67;;;;;;;;5067056;28;45480;-43
2023/10/11 04:50:45;;;;;;;;;12.33;12.33;;;;;;;;5079589;28;45372;-42
2023/10/11 04:53:17;;;;;;;;;19.00;13.00;;;;;;;;5077715;27;45524;-42
2023/10/11 04:55:46;;;;;;;;;16.67;15.33;;;;;;;;5077252;28;45564;-44
2023/10/11 04:58:21;;;;;;;;;17.33;13.00;;;;;;;;5078709;28;45490;-46
2023/10/11 05:00:47;;;;;;;;;14.00;12.33;;;;;;;;5078419;27;45694;-45
2023/10/11 05:03:12;;;;;;;;;10.67;9.67;;;;;;;;5070838;28;45448;-43
2023/10/11 05:05:42;;;;;;;;;18.33;12.67;;;;;;;;5077782;28;46121;-42
2023/10/11 05:08:20;;;;;;;;;15.00;11.00;;;;;;;;5079634;27;45345;-47
2023/10/11 05:10:46;;;;;;;;;16.33;15.00;;;;;;;;5072672;28;45400;-45
2023/10/11 05:13:13;;;;;;;;;16.33;14.00;;;;;;;;5078437;28;45532;-43
2023/10/11 05:15:47;;;;;;;;;17.67;16.33;;;;;;;;5080015;28;46167;-46
2023/10/11 05:18:18;;;;;;;;;16.33;15.00;;;;;;;;5074063;27;45944;-44
2023/10/11 05:23:13;;;;;;;;;17.00;15.33;;;;;;;;5081393;27;46314;-44
2023/10/11 05:28:27;;;;;;;;;17.00;14.67;;;;;;;;5070269;28;45962;-43
2023/10/11 05:31:44;;;;;;;;;17.00;13.67;;;;;;;;5076851;27;45515;-44
2023/10/11 05:36:40;;;;;;;;;17.67;16.00;;;;;;;;5079188;28;45369;-43
2023/10/11 05:50:50;;;;;;;;;15.33;14.33;;;;;;;;5075029;27;45295;-44
2023/10/11 05:52:46;;;;;;;;;19.67;16.00;;;;;;;;5077850;28;45400;-45
2023/10/11 05:55:13;;;;;;;;;17.00;14.00;;;;;;;;5071862;28;45449;-45
2023/10/11 05:57:39;;;;;;;;;13.00;13.00;;;;;;;;5078949;28;46148;-43
2023/10/11 06:00:18;;;;;;;;;15.33;13.00;;;;;;;;5076650;27;45584;-45
2023/10/11 06:02:47;;;;;;;;;19.00;18.00;;;;;;;;5074284;27;45421;-44
2023/10/11 06:05:14;;;;;;;;;21.33;17.67;;;;;;;;5071277;28;45490;-44
2023/10/11 06:07:39;;;;;;;;;19.33;19.00;;;;;;;;5073863;28;45690;-43
2023/10/11 06:10:06;;;;;;;;;19.00;15.67;;;;;;;;5069463;28;45529;-48
2023/10/11 06:12:33;;;;;;;;;14.00;12.67;;;;;;;;5069595;27;45722;-44
2023/10/11 06:15:03;;;;;;;;;16.67;16.67;;;;;;;;5074574;28;45402;-45
2023/10/11 06:17:48;;;;;;;;;17.67;16.33;;;;;;;;5072542;28;45455;-44
2023/10/11 06:20:27;;;;;;;;;17.00;15.67;;;;;;;;5066006;28;45483;-45
2023/10/11 06:22:52;;;;;;;;;20.33;16.00;;;;;;;;5070000;27;45496;-44
2023/10/11 06:25:23;;;;;;;;;18.33;16.67;;;;;;;;5073215;27;45484;-45
2023/10/11 06:30:23;;;;;;;;;20.00;19.00;;;;;;;;5080657;27;48586;-42
2023/10/11 06:32:50;;;;;;;;;17.00;15.33;;;;;;;;5079484;27;45539;-42
2023/10/11 06:35:23;;;;;;;;;22.33;15.67;;;;;;;;5073163;27;45421;-45
2023/10/11 06:37:52;;;;;;;;;15.33;15.00;;;;;;;;5075955;27;46159;-44
2023/10/11 06:40:18;;;;;;;;;17.67;16.33;;;;;;;;5073109;27;45382;-45
2023/10/11 06:42:43;;;;;;;;;17.33;15.33;;;;;;;;5075162;27;45563;-49
2023/10/11 06:45:16;;;;;;;;;20.67;19.00;;;;;;;;5073071;27;45248;-47
2023/10/11 06:47:42;;;;;;;;;16.67;15.33;;;;;;;;5074216;28;47952;-45
2023/10/11 06:50:14;;;;;;;;;23.33;19.33;;;;;;;;5072647;27;45549;-45
2023/10/11 06:52:46;;;;;;;;;19.33;17.67;;;;;;;;5070216;27;45484;-46
2023/10/11 06:57:39;;;;;;;;;19.67;16.33;;;;;;;;5067525;27;45573;-48
2023/10/11 07:00:12;;;;;;;;;19.67;17.00;;;;;;;;5075082;27;45369;-47
2023/10/11 07:02:37;;;;;;;;;21.33;18.00;;;;;;;;5067835;27;45738;-46
2023/10/11 07:05:05;;;;;;;;;20.00;18.33;;;;;;;;5066378;27;45614;-44
2023/10/11 07:07:34;;;;;;;;;20.00;18.00;;;;;;;;5076209;27;47065;-47
2023/10/11 07:10:02;;;;;;;;;18.33;17.33;;;;;;;;5075446;27;45283;-45
2023/10/11 07:12:39;;;;;;;;;17.67;16.33;;;;;;;;5072990;27;46909;-44
2023/10/11 07:15:05;;;;;;;;;18.33;17.33;;;;;;;;5080051;27;45487;-49
2023/10/11 07:17:32;;;;;;;;;20.33;18.00;;;;;;;;5076302;27;46174;-44
2023/10/11 07:19:57;;;;;;;;;19.00;17.67;;;;;;;;5078358;27;45528;-45
2023/10/11 07:22:26;;;;;;;;;18.67;17.33;;;;;;;;5078466;27;45487;-44
2023/10/11 07:24:59;;;;;;;;;13.00;12.33;;;;;;;;5078808;27;45374;-44
2023/10/11 07:27:27;;;;;;;;;17.67;17.00;;;;;;;;5078465;27;47363;-43
2023/10/11 07:29:54;;;;;;;;;18.33;14.33;;;;;;;;5082963;27;45272;-44
2023/10/11 07:32:20;;;;;;;;;12.00;9.33;;;;;;;;5073642;27;45448;-45
2023/10/11 07:34:47;;;;;;;;;20.00;14.67;;;;;;;;5082647;27;44875;-44
2023/10/11 07:37:12;;;;;;;;;14.00;12.67;;;;;;;;5077869;27;45488;-45
2023/10/11 07:39:40;;;;;;;;;13.67;13.33;;;;;;;;5080545;27;45434;-44
2023/10/11 07:44:31;;;;;;;;;13.67;11.00;;;;;;;;5077397;27;45303;-44
2023/10/11 07:46:57;;;;;;;;;11.00;9.33;;;;;;;;5079047;27;45549;-45
2023/10/11 07:49:25;;;;;;;;;8.00;6.33;;;;;;;;5080691;27;45487;-44
2023/10/11 07:51:58;;;;;;;;;8.00;6.67;;;;;;;;5079653;27;45381;-48
2023/10/11 07:54:25;;;;;;;;;15.00;10.00;;;;;;;;5080832;27;45512;-44
2023/10/11 07:56:57;;;;;;;;;8.00;8.00;;;;;;;;5085423;27;46999;-45
2023/10/11 07:59:26;;;;;;;;;8.00;8.00;;;;;;;;5082454;27;46599;-44
2023/10/11 08:01:53;;;;;;;;;8.00;6.67;;;;;;;;5074266;27;45469;-44
2023/10/11 08:04:22;;;;;;;;;7.33;7.00;;;;;;;;5082443;27;46366;-45
2023/10/11 08:06:50;;;;;;;;;6.33;6.00;;;;;;;;5078201;27;47207;-44
2023/10/11 08:09:19;;;;;;;;;5.33;5.00;;;;;;;;5079226;27;45499;-43
2023/10/11 08:11:52;;;;;;;;;9.00;7.33;;;;;;;;5081891;27;45923;-47
2023/10/11 08:14:22;;;;;;;;;7.00;6.00;;;;;;;;5078128;27;45664;-42
2023/10/11 08:16:50;;;;;;;;;8.67;6.00;;;;;;;;5078746;27;47127;-42
2023/10/11 08:19:16;;;;;;;;;8.00;6.00;;;;;;;;5072302;27;45458;-42
2023/10/11 08:21:47;;;;;;;;;7.33;6.67;;;;;;;;5086385;27;45640;-40
2023/10/11 08:24:15;;;;;;;;;4.00;4.00;;;;;;;;5085335;27;45587;-40
2023/10/11 08:26:45;;;;;;;;;6.67;5.00;;;;;;;;5073977;27;47219;-40
2023/10/11 08:29:27;;;;;;;;;9.33;6.00;;;;;;;;5070674;27;45376;-40
2023/10/11 08:31:53;;;;;;;;;6.00;6.00;;;;;;;;5075802;27;45366;-40
2023/10/11 08:34:18;;;;;;;;;10.33;7.67;;;;;;;;5077990;28;45457;-40
2023/10/11 08:36:43;;;;;;;;;5.00;4.33;;;;;;;;5078958;28;45846;-41
2023/10/11 08:39:12;;;;;;;;;6.00;4.33;;;;;;;;5075952;28;46603;-41
2023/10/11 08:41:43;;;;;;;;;4.00;4.00;;;;;;;;5076796;28;45386;-41
2023/10/11 08:44:15;;;;;;;;;5.67;4.00;;;;;;;;5075243;28;45519;-41
2023/10/11 08:46:45;;;;;;;;;7.00;5.67;;;;;;;;5071396;28;45563;-40
2023/10/11 08:49:10;;;;;;;;;4.67;4.67;;;;;;;;5078544;28;45529;-40
2023/10/11 08:51:39;;;;;;;;;5.33;4.67;;;;;;;;5076862;28;45251;-42
2023/10/11 08:54:11;;;;;;;;;10.33;5.33;;;;;;;;5066618;28;45515;-42
2023/10/11 08:56:36;;;;;;;;;5.33;5.33;;;;;;;;5060264;28;46908;-42
2023/10/11 08:59:02;;;;;;;;;7.00;4.00;;;;;;;;5071765;28;45217;-42
2023/10/11 09:01:27;;;;;;;;;3.67;3.67;;;;;;;;5078659;28;45409;-42
2023/10/11 09:04:07;;;;;;;;;7.00;6.00;;;;;;;;5079309;27;45498;-42
2023/10/11 09:06:33;;;;;;;;;5.00;4.00;;;;;;;;5076945;28;46878;-42
2023/10/11 09:09:00;;;;;;;;;8.00;5.67;;;;;;;;5078866;27;45322;-41
2023/10/11 09:11:35;;;;;;;;;10.33;7.67;;;;;;;;5078425;27;45495;-41
2023/10/11 09:14:09;;;;;;;;;6.33;5.00;;;;;;;;5078235;28;45424;-43
2023/10/11 09:16:37;;;;;;;;;7.00;4.00;;;;;;;;5078149;27;45921;-42
2023/10/11 09:19:05;;;;;;;;;6.00;5.33;;;;;;;;5068077;27;45520;-42
2023/10/11 09:21:34;;;;;;;;;7.33;5.00;;;;;;;;5074205;27;45402;-42
2023/10/11 09:24:00;;;;;;;;;5.33;5.00;;;;;;;;5078494;27;45708;-40
2023/10/11 09:26:34;;;;;;;;;4.00;4.00;;;;;;;;5077573;27;47057;-42
2023/10/11 09:29:02;;;;;;;;;6.00;6.00;;;;;;;;5077235;27;45430;-40
2023/10/11 09:31:29;;;;;;;;;3.00;3.00;;;;;;;;5076335;27;45669;-42
2023/10/11 09:33:59;;;;;;;;;4.25;3.75;;;;;;;;5079825;27;45566;-42
2023/10/11 09:36:25;;;;;;;;;3.00;3.00;;;;;;;;5077235;27;45466;-42
2023/10/11 09:38:57;;;;;;;;;3.25;3.25;;;;;;;;5077951;27;45512;-42
2023/10/11 09:41:23;;;;;;;;;3.75;3.75;;;;;;;;5071038;27;45837;-42
2023/10/11 09:43:48;;;;;;;;;2.25;2.25;;;;;;;;5084512;27;45444;-41
2023/10/11 09:46:13;;;;;;;;;4.00;4.00;;;;;;;;5085715;27;46283;-43
2023/10/11 09:48:39;;;;;;;;;5.00;3.75;;;;;;;;5079599;27;45671;-43
2023/10/11 09:51:17;;;;;;;;;2.75;2.75;;;;;;;;5079375;27;45587;-43
2023/10/11 09:53:42;;;;;;;;;6.00;3.00;;;;;;;;5094950;27;45682;-43
2023/10/11 09:56:17;;;;;;;;;2.75;2.75;;;;;;;;5092464;27;46315;-43
2023/10/11 09:58:48;;;;;;;;;3.75;2.75;;;;;;;;5068093;27;45581;-42
2023/10/11 10:01:23;;;;;;;;;4.25;4.25;;;;;;;;5080177;27;45500;-47
2023/10/11 10:03:52;;;;;;;;;4.25;2.75;;;;;;;;5080442;27;45857;-43
2023/10/11 10:06:24;;;;;;;;;1.75;1.75;;;;;;;;5076826;27;45638;-44
2023/10/11 10:12:09;;;;;;;;;3.50;3.00;;;;;;;;5068899;28;45383;-44
2023/10/11 10:14:35;;;;;;;;;3.75;3.00;;;;;;;;5079683;27;45350;-43
2023/10/11 10:17:10;;;;;;;;;3.00;2.75;;;;;;;;5078895;28;45480;-45
2023/10/11 10:19:39;;;;;;;;;3.00;2.25;;;;;;;;5076552;27;45472;-42
2023/10/11 10:22:19;;;;;;;;;2.00;2.00;;;;;;;;5076484;27;45498;-43
2023/10/11 10:24:45;;;;;;;;;2.00;2.00;;;;;;;;5083100;27;45717;-43
2023/10/11 10:27:35;;;;;;;;;3.25;3.25;;;;;;;;5079662;27;45470;-44
2023/10/11 10:30:10;;;;;;;;;4.50;4.50;;;;;;;;5077806;27;45438;-43
2023/10/11 10:32:35;;;;;;;;;5.50;4.75;;;;;;;;5079745;27;45502;-42
2023/10/11 10:35:19;;;;;;;;;5.50;3.25;;;;;;;;5071267;27;45506;-42
2023/10/11 10:37:56;;;;;;;;;2.00;2.00;;;;;;;;5077399;27;45345;-43
2023/10/11 10:40:25;;;;;;;;;4.25;3.00;;;;;;;;5076973;27;45579;-44
2023/10/11 10:43:21;;;;;;;;;4.75;4.75;;;;;;;;5083569;27;45308;-42
2023/10/11 10:45:51;;;;;;;;;4.50;3.50;;;;;;;;5082851;27;45414;-43
2023/10/11 10:48:23;;;;;;;;;2.00;2.00;;;;;;;;5076571;27;45301;-42
2023/10/11 10:50:52;;;;;;;;;5.00;5.00;;;;;;;;5074786;27;45294;-43
2023/10/11 10:53:18;;;;;;;;;4.50;3.50;;;;;;;;5084571;27;45467;-43
2023/10/11 10:55:44;;;;;;;;;6.75;4.25;;;;;;;;5082362;27;45503;-41
2023/10/11 10:58:19;;;;;;;;;5.50;4.00;;;;;;;;5080200;27;46091;-42
2023/10/11 11:00:45;;;;;;;;;3.75;3.75;;;;;;;;5077362;27;45484;-42
2023/10/11 11:03:17;;;;;;;;;3.75;3.75;;;;;;;;5082392;27;45779;-42
2023/10/11 11:05:55;;;;;;;;;3.00;3.00;;;;;;;;5081249;27;45337;-43
2023/10/11 11:08:24;;;;;;;;;4.75;4.00;;;;;;;;5072016;28;47542;-42
2023/10/11 11:10:54;;;;;;;;;11.25;4.50;;;;;;;;5080925;28;45416;-41
2023/10/11 11:13:20;;;;;;;;;3.00;3.00;;;;;;;;5080902;28;45735;-43
2023/10/11 11:15:46;;;;;;;;;6.75;3.75;;;;;;;;5081558;28;45503;-42
2023/10/11 11:18:11;;;;;;;;;7.25;4.25;;;;;;;;5078158;28;47101;-43
2023/10/11 11:20:40;;;;;;;;;6.00;5.00;;;;;;;;5079170;28;45824;-43
2023/10/11 11:23:06;;;;;;;;;4.25;3.75;;;;;;;;5075949;28;45527;-44
2023/10/11 11:25:34;;;;;;;;;4.25;3.25;;;;;;;;5078530;28;46452;-43
2023/10/11 11:28:04;;;;;;;;;6.50;5.50;;;;;;;;5078526;28;46616;-44
2023/10/11 11:30:33;;;;;;;;;4.25;4.25;;;;;;;;5075749;27;45492;-42
2023/10/11 11:32:59;;;;;;;;;4.00;4.00;;;;;;;;5078931;28;46876;-45
2023/10/11 11:35:32;;;;;;;;;2.75;2.75;;;;;;;;5071090;27;45424;-44
2023/10/11 11:38:02;;;;;;;;;4.00;4.00;;;;;;;;5079106;28;46229;-43
2023/10/11 11:40:30;;;;;;;;;8.00;5.00;;;;;;;;5073177;28;45668;-43
2023/10/11 11:43:00;;;;;;;;;4.50;4.50;;;;;;;;5079285;28;45503;-43
2023/10/11 11:45:27;;;;;;;;;4.00;3.00;;;;;;;;5070995;27;45488;-44
2023/10/11 11:47:58;;;;;;;;;7.75;3.50;;;;;;;;5078926;28;47047;-43
2023/10/11 11:50:30;;;;;;;;;3.25;3.25;;;;;;;;5076614;27;45466;-43
2023/10/11 11:52:57;;;;;;;;;6.00;4.75;;;;;;;;5078316;28;45314;-42
2023/10/11 11:55:22;;;;;;;;;4.50;2.75;;;;;;;;5079015;28;45598;-42
2023/10/11 11:57:48;;;;;;;;;8.00;3.00;;;;;;;;5080807;28;47001;-42
2023/10/11 12:00:29;;;;;;;;;4.25;4.25;;;;;;;;5072924;28;45353;-41
2023/10/11 12:02:55;;;;;;;;;5.75;5.75;;;;;;;;5075553;27;45343;-41
2023/10/11 12:05:21;;;;;;;;;3.00;3.00;;;;;;;;5069694;27;45494;-42
2023/10/11 12:07:49;;;;;;;;;5.50;4.50;;;;;;;;5077897;28;46212;-43
2023/10/11 12:10:23;;;;;;;;;4.00;3.25;;;;;;;;5076849;28;45729;-42
2023/10/11 12:12:52;;;;;;;;;9.25;5.75;;;;;;;;5079459;28;45586;-43
2023/10/11 12:15:18;;;;;;;;;7.00;4.00;;;;;;;;5072825;28;45508;-41
2023/10/11 12:17:44;;;;;;;;;5.25;4.75;;;;;;;;5073769;28;46475;-44
2023/10/11 12:20:12;;;;;;;;;4.25;3.00;;;;;;;;5075676;28;45351;-43
2023/10/11 12:22:42;;;;;;;;;5.50;4.25;;;;;;;;5068323;28;45416;-41
2023/10/11 12:25:09;;;;;;;;;3.25;3.25;;;;;;;;5079423;28;45920;-43
2023/10/11 12:27:38;;;;;;;;;4.25;4.25;;;;;;;;5074987;28;46085;-44
2023/10/11 12:30:09;;;;;;;;;4.50;3.75;;;;;;;;5072742;28;45266;-45
2023/10/11 12:32:34;;;;;;;;;4.75;3.50;;;;;;;;5073794;27;45735;-43
2023/10/11 12:35:04;;;;;;;;;4.75;2.75;;;;;;;;5076285;28;45347;-42
2023/10/11 12:37:30;;;;;;;;;5.00;4.00;;;;;;;;5077709;28;46056;-42
2023/10/11 12:39:55;;;;;;;;;6.00;4.75;;;;;;;;5078406;28;45437;-44
2023/10/11 12:42:22;;;;;;;;;5.75;4.25;;;;;;;;5075978;27;45325;-42
2023/10/11 12:44:47;;;;;;;;;3.50;3.50;;;;;;;;5075922;28;45438;-44
2023/10/11 12:47:13;;;;;;;;;5.50;5.50;;;;;;;;5075581;28;45623;-43
2023/10/11 12:49:38;;;;;;;;;3.00;3.00;;;;;;;;5077245;28;45870;-41
2023/10/11 12:52:05;;;;;;;;;3.00;2.00;;;;;;;;5078145;28;45375;-43
2023/10/11 12:54:31;;;;;;;;;4.00;3.50;;;;;;;;5078629;28;45453;-42
2023/10/11 12:56:56;;;;;;;;;3.50;3.50;;;;;;;;5079377;27;46119;-43
2023/10/11 12:59:22;;;;;;;;;5.00;5.00;;;;;;;;5078061;27;45536;-43
2023/10/11 13:01:52;;;;;;;;;3.00;3.00;;;;;;;;5073012;28;46245;-42
2023/10/11 13:04:17;;;;;;;;;5.00;3.50;;;;;;;;5078408;28;45328;-42
2023/10/11 13:06:49;;;;;;;;;7.00;5.50;;;;;;;;5078045;28;47113;-42
2023/10/11 13:09:15;;;;;;;;;3.00;3.00;;;;;;;;5072596;28;45576;-44
2023/10/11 13:11:46;;;;;;;;;4.25;4.25;;;;;;;;5077199;27;45469;-43
2023/10/11 13:14:21;;;;;;;;;4.75;3.00;;;;;;;;5079301;27;45475;-43
2023/10/11 13:17:00;;;;;;;;;3.75;3.75;;;;;;;;5078290;28;46338;-41
2023/10/11 13:19:25;;;;;;;;;3.25;3.25;;;;;;;;5073653;28;45526;-42
2023/10/11 13:21:54;;;;;;;;;6.00;5.25;;;;;;;;5078011;28;45396;-44
2023/10/11 13:24:22;;;;;;;;;4.50;4.00;;;;;;;;5075978;27;45464;-43
2023/10/11 13:26:48;;;;;;;;;3.75;3.75;;;;;;;;5076696;28;46167;-43
2023/10/11 13:29:19;;;;;;;;;3.25;3.25;;;;;;;;5076386;28;45582;-42
2023/10/11 13:31:48;;;;;;;;;4.25;3.75;;;;;;;;5074349;28;45670;-40
2023/10/11 13:34:16;;;;;;;;;5.25;5.25;;;;;;;;5073726;28;45504;-43
2023/10/11 13:36:42;;;;;;;;;3.25;3.25;;;;;;;;5076411;28;45594;-43
2023/10/11 13:40:08;;;;;;;;;4.00;4.00;;;;;;;;5077650;28;45451;-44
2023/10/11 13:42:09;;;;;;;;;5.25;5.25;;;;;;;;5065693;28;45551;-43
2023/10/11 13:44:37;;;;;;;;;3.00;3.00;;;;;;;;5077653;28;45502;-44
2023/10/11 13:47:03;;;;;;;;;3.50;3.50;;;;;;;;5071778;27;47043;-43
2023/10/11 13:49:32;;;;;;;;;7.00;6.00;;;;;;;;5077123;28;45418;-41
2023/10/11 13:52:02;;;;;;;;;4.75;4.75;;;;;;;;5065024;28;45539;-41
2023/10/11 13:54:42;;;;;;;;;3.25;2.75;;;;;;;;5076945;27;45624;-41
2023/10/11 13:57:11;;;;;;;;;5.00;5.00;;;;;;;;5074194;28;46930;-43
2023/10/11 13:59:37;;;;;;;;;6.25;6.00;;;;;;;;5071016;28;45459;-42
2023/10/11 14:02:32;;;;;;;;;9.00;5.00;;;;;;;;5074472;28;45339;-43
2023/10/11 14:04:49;;;;;;;;;6.50;6.50;;;;;;;;5075362;28;45424;-43
2023/10/11 14:09:59;;;;;;;;;4.00;4.00;;;;;;;;5074687;28;45532;-43
2023/10/11 14:12:27;;;;;;;;;3.50;3.50;;;;;;;;5068322;28;45378;-43
2023/10/11 14:14:53;;;;;;;;;4.75;3.50;;;;;;;;5078404;28;45400;-43
2023/10/11 14:17:24;;;;;;;;;4.50;4.00;;;;;;;;5076572;27;45509;-42
2023/10/11 14:19:51;;;;;;;;;3.00;3.00;;;;;;;;5071870;27;45344;-42
2023/10/11 14:22:16;;;;;;;;;5.25;4.00;;;;;;;;5083116;27;45448;-42
2023/10/11 14:24:42;;;;;;;;;4.75;4.25;;;;;;;;5077156;28;45414;-43
2023/10/11 14:27:08;;;;;;;;;6.00;4.25;;;;;;;;5076662;27;46049;-42
2023/10/11 14:29:33;;;;;;;;;5.50;4.00;;;;;;;;5076397;27;45350;-43
2023/10/11 14:31:58;;;;;;;;;5.25;5.25;;;;;;;;5070820;27;45612;-42
2023/10/11 14:34:24;;;;;;;;;5.25;4.75;;;;;;;;5074386;28;45676;-42
2023/10/11 14:36:50;;;;;;;;;4.00;3.00;;;;;;;;5066162;27;46076;-42
2023/10/11 14:39:18;;;;;;;;;5.50;5.50;;;;;;;;5075990;27;45480;-43
2023/10/11 14:41:45;;;;;;;;;4.50;4.50;;;;;;;;5075769;27;45609;-42
2023/10/11 14:44:10;;;;;;;;;5.50;3.50;;;;;;;;5071325;27;45622;-42
2023/10/11 14:46:39;;;;;;;;;4.00;4.00;;;;;;;;5069489;27;45579;-43
2023/10/11 14:49:04;;;;;;;;;3.50;3.50;;;;;;;;5070924;27;45347;-43
2023/10/11 14:51:30;;;;;;;;;4.50;4.50;;;;;;;;5067860;28;45612;-41
2023/10/11 14:53:55;;;;;;;;;7.50;4.25;;;;;;;;5069763;27;45253;-43
2023/10/11 14:56:20;;;;;;;;;4.50;3.75;;;;;;;;5070358;27;46106;-42
2023/10/11 14:58:45;;;;;;;;;4.00;4.00;;;;;;;;5076225;27;45535;-43
2023/10/11 15:01:13;;;;;;;;;5.00;2.25;;;;;;;;5072770;27;45473;-42
2023/10/11 15:03:39;;;;;;;;;7.25;5.75;;;;;;;;5069198;27;45319;-42
2023/10/11 15:06:08;;;;;;;;;4.25;4.25;;;;;;;;5076009;27;46219;-42
2023/10/11 15:08:34;;;;;;;;;4.00;4.00;;;;;;;;5075275;28;45477;-42
2023/10/11 15:11:00;;;;;;;;;6.50;6.25;;;;;;;;5076815;27;45354;-42
2023/10/11 15:13:25;;;;;;;;;3.75;3.50;;;;;;;;5075983;28;45518;-43